Time,TemperatureF,DewpointF,PressureIn,WindDirection,WindDirectionDegrees,WindSpeedMPH,WindSpeedGustMPH,Humidity,HourlyPrecipIn,Conditions,Clouds,dailyrainin,SoftwareType,DateUTC
2013-06-09 00:03:00,48.4,47.0,29.97,ESE,117,0.0,0.0,95,0.00,,SKC,0.00,VWS V14.01,2013-06-09 05:03:00,
2013-06-09 00:08:00,48.5,47.1,29.97,ESE,117,0.0,0.0,95,0.00,,SKC,0.00,VWS V14.01,2013-06-09 05:08:00,
2013-06-09 00:13:00,48.4,47.0,29.97,ESE,117,0.0,0.0,95,0.00,,SKC,0.00,VWS V14.01,2013-06-09 05:13:00,
2013-06-09 00:18:00,48.2,46.8,29.98,ESE,117,0.0,0.0,95,0.00,,SKC,0.00,VWS V14.01,2013-06-09 05:18:00,
2013-06-09 00:23:00,47.9,46.5,29.98,ESE,117,0.0,0.0,95,0.00,,SKC,0.00,VWS V14.01,2013-06-09 05:23:00,
2013-06-09 00:28:00,47.9,46.8,29.98,ESE,117,0.0,0.0,96,0.00,,SKC,0.00,VWS V14.01,2013-06-09 05:28:00,
2013-06-09 00:33:00,48.1,47.0,29.98,ESE,117,0.0,0.0,96,0.00,,SKC,0.00,VWS V14.01,2013-06-09 05:33:00,
2013-06-09 00:38:00,48.1,47.0,29.98,ESE,117,0.0,0.0,96,0.00,,SKC,0.00,VWS V14.01,2013-06-09 05:38:00,
2013-06-09 00:43:00,47.9,46.8,29.98,ESE,117,0.0,0.0,96,0.00,,SKC,0.00,VWS V14.01,2013-06-09 05:43:00,
2013-06-09 00:48:00,47.6,46.2,29.98,ESE,117,0.0,0.0,95,0.00,,SKC,0.00,VWS V14.01,2013-06-09 05:48:00,
2013-06-09 00:53:00,47.5,46.4,29.98,ESE,117,0.0,0.0,96,0.00,,SKC,0.00,VWS V14.01,2013-06-09 05:53:00,
2013-06-09 00:58:00,47.4,46.3,29.98,ESE,117,0.0,0.0,96,0.00,,SKC,0.00,VWS V14.01,2013-06-09 05:58:00,
2013-06-09 01:03:00,47.3,46.2,29.99,ESE,117,0.0,0.0,96,0.00,,SKC,0.00,VWS V14.01,2013-06-09 06:03:00,
2013-06-09 01:08:00,47.3,46.2,29.99,ESE,117,0.0,0.0,96,0.00,,SKC,0.00,VWS V14.01,2013-06-09 06:08:00,
2013-06-09 01:13:00,47.3,46.2,29.99,ESE,117,0.0,0.0,96,0.00,,SKC,0.00,VWS V14.01,2013-06-09 06:13:00,
2013-06-09 01:18:00,47.1,46.0,29.99,ESE,117,0.0,0.0,96,0.00,,SKC,0.00,VWS V14.01,2013-06-09 06:18:00,
2013-06-09 01:23:00,46.9,45.8,29.99,ESE,117,0.0,0.0,96,0.00,,SKC,0.00,VWS V14.01,2013-06-09 06:23:00,
2013-06-09 01:28:00,46.8,45.7,29.99,ESE,117,0.0,0.0,96,0.00,,SKC,0.00,VWS V14.01,2013-06-09 06:28:00,
2013-06-09 01:33:00,46.7,45.6,29.99,ESE,117,0.0,0.0,96,0.00,,SKC,0.00,VWS V14.01,2013-06-09 06:33:00,
2013-06-09 01:38:00,46.5,45.4,29.99,ESE,117,0.0,0.0,96,0.00,,SKC,0.00,VWS V14.01,2013-06-09 06:38:00,
2013-06-09 01:43:00,46.6,45.8,29.99,ESE,117,0.0,0.0,97,0.00,,SKC,0.00,VWS V14.01,2013-06-09 06:43:00,
2013-06-09 01:48:00,46.4,45.3,29.99,ESE,117,0.0,0.0,96,0.00,,SKC,0.00,VWS V14.01,2013-06-09 06:48:00,
2013-06-09 01:53:00,46.4,45.3,29.99,ESE,117,0.0,0.0,96,0.00,,SKC,0.00,VWS V14.01,2013-06-09 06:53:00,
2013-06-09 01:58:00,46.3,45.5,29.99,ESE,117,0.0,0.0,97,0.00,,SKC,0.00,VWS V14.01,2013-06-09 06:58:00,
2013-06-09 02:03:00,46.1,45.0,29.99,ESE,117,0.0,0.0,96,0.00,,SKC,0.00,VWS V14.01,2013-06-09 07:03:00,
2013-06-09 02:08:00,45.7,44.6,29.99,ESE,117,0.0,0.0,96,0.00,,SKC,0.00,VWS V14.01,2013-06-09 07:08:00,
2013-06-09 02:13:00,45.6,44.5,29.99,ESE,117,0.0,0.0,96,0.00,,SKC,0.00,VWS V14.01,2013-06-09 07:13:00,
2013-06-09 02:18:00,45.6,44.8,29.99,ESE,117,0.0,0.0,97,0.00,,SKC,0.00,VWS V14.01,2013-06-09 07:18:00,
2013-06-09 02:23:00,45.6,44.8,29.99,ESE,117,0.0,0.0,97,0.00,,SKC,0.00,VWS V14.01,2013-06-09 07:23:00,
2013-06-09 02:28:00,45.4,44.6,29.99,ESE,117,0.0,0.0,97,0.00,,SKC,0.00,VWS V14.01,2013-06-09 07:28:00,
2013-06-09 02:33:00,45.5,44.7,29.99,ESE,117,0.0,0.0,97,0.00,,SKC,0.00,VWS V14.01,2013-06-09 07:33:00,
2013-06-09 02:38:00,45.5,44.4,29.99,ESE,117,0.0,0.0,96,0.00,,SKC,0.00,VWS V14.01,2013-06-09 07:38:00,
2013-06-09 02:43:00,45.6,44.8,29.99,ESE,117,0.0,0.0,97,0.00,,SKC,0.00,VWS V14.01,2013-06-09 07:43:00,
2013-06-09 02:48:00,45.7,44.9,29.99,ESE,117,0.0,0.0,97,0.00,,SKC,0.00,VWS V14.01,2013-06-09 07:48:00,
2013-06-09 02:53:00,45.8,45.0,29.99,ESE,117,0.0,0.0,97,0.00,,SKC,0.00,VWS V14.01,2013-06-09 07:53:00,
2013-06-09 02:58:00,45.9,45.1,29.99,ESE,117,0.0,0.0,97,0.00,,SKC,0.00,VWS V14.01,2013-06-09 07:58:00,
2013-06-09 03:03:00,45.9,45.1,29.99,ESE,117,0.0,0.0,97,0.00,,SKC,0.00,VWS V14.01,2013-06-09 08:03:00,
2013-06-09 03:08:00,45.8,45.0,29.99,ESE,117,0.0,0.0,97,0.00,,SKC,0.00,VWS V14.01,2013-06-09 08:08:00,
2013-06-09 03:13:00,45.8,45.0,29.99,ESE,117,0.0,0.0,97,0.00,,SKC,0.00,VWS V14.01,2013-06-09 08:13:00,
2013-06-09 03:18:00,45.7,44.9,29.99,ESE,117,0.0,0.0,97,0.00,,SKC,0.00,VWS V14.01,2013-06-09 08:18:00,
2013-06-09 03:23:00,45.8,45.0,29.99,ESE,117,0.0,0.0,97,0.00,,SKC,0.00,VWS V14.01,2013-06-09 08:23:00,
2013-06-09 03:28:00,45.8,45.0,29.99,ESE,117,0.0,0.0,97,0.00,,SKC,0.00,VWS V14.01,2013-06-09 08:28:00,
2013-06-09 03:33:00,45.7,44.9,29.98,ESE,117,0.0,0.0,97,0.00,,SKC,0.00,VWS V14.01,2013-06-09 08:33:00,
2013-06-09 03:38:00,45.5,44.7,29.98,ESE,117,0.0,0.0,97,0.00,,SKC,0.00,VWS V14.01,2013-06-09 08:38:00,
2013-06-09 03:43:00,45.4,44.6,29.98,ESE,117,0.0,0.0,97,0.00,,SKC,0.00,VWS V14.01,2013-06-09 08:43:00,
2013-06-09 03:48:00,45.3,44.5,29.99,ESE,117,0.0,0.0,97,0.00,,SKC,0.00,VWS V14.01,2013-06-09 08:48:00,
2013-06-09 03:53:00,45.3,44.5,29.99,ESE,117,0.0,0.0,97,0.00,,SKC,0.00,VWS V14.01,2013-06-09 08:53:00,
2013-06-09 03:58:00,45.2,44.4,29.99,ESE,117,0.0,0.0,97,0.00,,SKC,0.00,VWS V14.01,2013-06-09 08:58:00,
2013-06-09 04:03:00,45.1,44.3,29.98,ESE,117,0.0,0.0,97,0.00,,SKC,0.00,VWS V14.01,2013-06-09 09:03:00,
2013-06-09 04:08:00,45.0,44.2,29.98,ESE,117,0.0,0.0,97,0.00,,SKC,0.00,VWS V14.01,2013-06-09 09:08:00,
2013-06-09 04:13:00,44.9,44.1,29.98,ESE,117,0.0,0.0,97,0.00,,SKC,0.00,VWS V14.01,2013-06-09 09:13:00,
2013-06-09 04:18:00,44.8,44.0,29.98,ESE,117,0.0,0.0,97,0.00,,SKC,0.00,VWS V14.01,2013-06-09 09:18:00,
2013-06-09 04:23:00,44.7,43.9,29.98,ESE,117,0.0,0.0,97,0.00,,SKC,0.00,VWS V14.01,2013-06-09 09:23:00,
2013-06-09 04:28:00,44.7,43.9,29.98,ESE,117,0.0,0.0,97,0.00,,SKC,0.00,VWS V14.01,2013-06-09 09:28:00,
2013-06-09 04:33:00,44.7,43.9,29.98,ESE,117,0.0,0.0,97,0.00,,SKC,0.00,VWS V14.01,2013-06-09 09:33:00,
2013-06-09 04:38:00,44.6,43.8,29.98,ESE,117,0.0,0.0,97,0.00,,SKC,0.00,VWS V14.01,2013-06-09 09:38:00,
2013-06-09 04:43:00,44.5,43.7,29.98,ESE,117,0.0,0.0,97,0.00,,SKC,0.00,VWS V14.01,2013-06-09 09:43:00,
2013-06-09 04:49:00,44.6,43.8,29.98,ESE,117,0.0,0.0,97,0.00,,SKC,0.00,VWS V14.01,2013-06-09 09:49:00,
2013-06-09 04:54:00,44.8,44.0,29.98,ESE,117,0.0,0.0,97,0.00,,SKC,0.00,VWS V14.01,2013-06-09 09:54:00,
2013-06-09 04:59:00,44.8,44.0,29.98,ESE,117,0.0,0.0,97,0.00,,SKC,0.00,VWS V14.01,2013-06-09 09:59:00,
2013-06-09 05:04:00,44.9,44.1,29.99,ESE,117,0.0,0.0,97,0.00,,SKC,0.00,VWS V14.01,2013-06-09 10:04:00,
2013-06-09 05:09:00,45.1,44.3,29.99,ESE,117,0.0,0.0,97,0.00,,SKC,0.00,VWS V14.01,2013-06-09 10:09:00,
2013-06-09 05:14:00,45.2,44.4,29.99,ESE,117,0.0,0.0,97,0.00,,SKC,0.00,VWS V14.01,2013-06-09 10:14:00,
2013-06-09 05:19:00,45.1,44.3,29.99,ESE,117,0.0,0.0,97,0.00,,SKC,0.00,VWS V14.01,2013-06-09 10:19:00,
2013-06-09 05:24:00,45.2,44.4,29.99,ESE,117,0.0,0.0,97,0.00,,SKC,0.00,VWS V14.01,2013-06-09 10:24:00,
2013-06-09 05:29:00,45.3,44.5,29.99,ESE,117,0.0,0.0,97,0.00,,SKC,0.00,VWS V14.01,2013-06-09 10:29:00,
2013-06-09 05:34:00,45.6,45.1,29.98,ESE,117,0.0,0.0,98,0.00,,SKC,0.00,VWS V14.01,2013-06-09 10:34:00,
2013-06-09 05:39:00,45.7,45.2,29.98,ESE,117,0.0,0.0,98,0.00,,SKC,0.00,VWS V14.01,2013-06-09 10:39:00,
2013-06-09 05:44:00,45.8,45.3,29.98,ESE,117,0.0,0.0,98,0.00,,SKC,0.00,VWS V14.01,2013-06-09 10:44:00,
2013-06-09 05:49:00,46.1,45.6,29.98,ESE,117,0.0,0.0,98,0.00,,SKC,0.00,VWS V14.01,2013-06-09 10:49:00,
2013-06-09 05:54:00,46.3,45.8,29.98,ESE,117,0.0,1.0,98,0.00,,SKC,0.00,VWS V14.01,2013-06-09 10:54:00,
2013-06-09 05:59:00,46.7,46.2,29.98,ESE,117,0.0,0.0,98,0.00,,SKC,0.00,VWS V14.01,2013-06-09 10:59:00,
2013-06-09 06:04:00,47.0,46.5,29.98,ESE,117,0.0,0.0,98,0.00,,SKC,0.00,VWS V14.01,2013-06-09 11:04:00,
2013-06-09 06:09:00,47.2,46.7,29.98,ESE,117,0.0,0.0,98,0.00,,SKC,0.00,VWS V14.01,2013-06-09 11:09:00,
2013-06-09 06:14:00,47.5,46.7,29.98,ESE,117,0.0,0.0,97,0.00,,SKC,0.00,VWS V14.01,2013-06-09 11:14:00,
2013-06-09 06:19:00,47.8,46.7,29.98,ESE,117,0.0,0.0,96,0.00,,SKC,0.00,VWS V14.01,2013-06-09 11:19:00,
2013-06-09 06:24:00,48.0,46.6,29.98,ESE,117,0.0,0.0,95,0.00,,SKC,0.00,VWS V14.01,2013-06-09 11:24:00,
2013-06-09 06:29:00,48.3,46.9,29.98,ESE,117,0.0,0.0,95,0.00,,SKC,0.00,VWS V14.01,2013-06-09 11:29:00,
2013-06-09 06:34:00,48.5,46.9,29.98,ESE,117,0.0,0.0,94,0.00,,SKC,0.00,VWS V14.01,2013-06-09 11:34:00,
2013-06-09 06:39:00,48.7,47.0,29.98,ESE,117,0.0,0.0,94,0.00,,SKC,0.00,VWS V14.01,2013-06-09 11:39:00,
2013-06-09 06:44:00,49.0,46.8,29.98,ESE,117,0.0,0.0,92,0.00,,SKC,0.00,VWS V14.01,2013-06-09 11:44:00,
2013-06-09 06:49:00,49.4,47.2,29.98,ESE,117,0.0,0.0,92,0.00,,SKC,0.00,VWS V14.01,2013-06-09 11:49:00,
2013-06-09 06:54:00,49.6,47.1,29.98,ESE,117,0.0,0.0,91,0.00,,SKC,0.00,VWS V14.01,2013-06-09 11:54:00,
2013-06-09 06:59:00,50.0,47.5,29.98,ESE,117,0.0,0.0,91,0.00,,SKC,0.00,VWS V14.01,2013-06-09 11:59:00,
2013-06-09 07:04:00,50.4,47.9,29.98,ESE,117,0.0,0.0,91,0.00,,SKC,0.00,VWS V14.01,2013-06-09 12:04:00,
2013-06-09 07:09:00,50.7,47.6,29.98,ESE,117,0.0,0.0,89,0.00,,SKC,0.00,VWS V14.01,2013-06-09 12:09:00,
2013-06-09 07:14:00,51.0,47.9,29.99,ESE,117,0.0,0.0,89,0.00,,SKC,0.00,VWS V14.01,2013-06-09 12:14:00,
2013-06-09 07:19:00,51.2,48.1,29.99,ESE,112,0.0,0.0,89,0.00,,SKC,0.00,VWS V14.01,2013-06-09 12:19:00,
2013-06-09 07:24:00,51.5,47.8,29.99,ESE,111,0.0,0.0,87,0.00,,SKC,0.00,VWS V14.01,2013-06-09 12:24:00,
2013-06-09 07:29:00,51.7,48.6,29.98,ESE,111,0.0,0.0,89,0.00,,SKC,0.00,VWS V14.01,2013-06-09 12:29:00,
2013-06-09 07:34:00,51.9,47.8,29.98,ESE,104,0.0,0.0,86,0.00,,SKC,0.00,VWS V14.01,2013-06-09 12:34:00,
2013-06-09 07:39:00,52.2,47.8,29.98,SE,126,0.0,0.0,85,0.00,,SKC,0.00,VWS V14.01,2013-06-09 12:39:00,
2013-06-09 07:44:00,52.4,48.3,29.99,ESE,107,0.0,0.0,86,0.00,,SKC,0.00,VWS V14.01,2013-06-09 12:44:00,
2013-06-09 07:49:00,52.6,48.5,29.99,ESE,107,0.0,0.0,86,0.00,,SKC,0.00,VWS V14.01,2013-06-09 12:49:00,
2013-06-09 07:54:00,52.8,48.7,29.99,ESE,114,0.0,0.0,86,0.00,,SKC,0.00,VWS V14.01,2013-06-09 12:54:00,
2013-06-09 07:59:00,53.0,48.6,29.98,ESE,114,0.0,0.0,85,0.00,,SKC,0.00,VWS V14.01,2013-06-09 12:59:00,
2013-06-09 08:04:00,53.2,48.8,29.98,ESE,114,0.0,0.0,85,0.00,,SKC,0.00,VWS V14.01,2013-06-09 13:04:00,
2013-06-09 08:09:00,53.4,49.3,29.98,ESE,113,0.0,0.0,86,0.00,,SKC,0.00,VWS V14.01,2013-06-09 13:09:00,
2013-06-09 08:14:00,53.5,49.1,29.98,ESE,111,0.0,0.0,85,0.00,,SKC,0.00,VWS V14.01,2013-06-09 13:14:00,
2013-06-09 08:19:00,53.5,49.4,29.98,ESE,105,0.0,0.0,86,0.00,,SKC,0.00,VWS V14.01,2013-06-09 13:19:00,
2013-06-09 08:24:00,53.6,49.2,29.98,ESE,105,0.0,0.0,85,0.00,,SKC,0.00,VWS V14.01,2013-06-09 13:24:00,
2013-06-09 08:29:00,53.7,49.6,29.98,ESE,105,0.0,0.0,86,0.00,,SKC,0.00,VWS V14.01,2013-06-09 13:29:00,
2013-06-09 08:34:00,53.9,49.8,29.98,ESE,106,0.0,0.0,86,0.00,,SKC,0.00,VWS V14.01,2013-06-09 13:34:00,
2013-06-09 08:39:00,54.0,49.9,29.98,ESE,108,0.0,0.0,86,0.00,,SKC,0.00,VWS V14.01,2013-06-09 13:39:00,
2013-06-09 08:44:00,54.1,50.0,29.98,ESE,111,0.0,0.0,86,0.00,,SKC,0.00,VWS V14.01,2013-06-09 13:44:00,
2013-06-09 08:49:00,54.2,50.1,29.98,ESE,117,0.0,0.0,86,0.00,,SKC,0.00,VWS V14.01,2013-06-09 13:49:00,
2013-06-09 08:54:00,54.4,50.3,29.98,ESE,119,0.0,0.0,86,0.00,,SKC,0.00,VWS V14.01,2013-06-09 13:54:00,
2013-06-09 08:59:00,54.5,50.4,29.98,East,98,0.0,0.0,86,0.00,,SKC,0.00,VWS V14.01,2013-06-09 13:59:00,
2013-06-09 09:04:00,54.6,50.5,29.98,ESE,111,0.0,0.0,86,0.00,,SKC,0.00,VWS V14.01,2013-06-09 14:04:00,
2013-06-09 09:09:00,54.6,50.8,29.98,East,94,0.0,0.0,87,0.00,,SKC,0.00,VWS V14.01,2013-06-09 14:09:00,
2013-06-09 09:15:00,54.5,51.3,29.98,ESE,103,0.0,0.0,89,0.00,,SKC,0.00,VWS V14.01,2013-06-09 14:15:00,
2013-06-09 09:19:00,54.1,51.2,29.98,ESE,107,0.0,0.0,90,0.00,,SKC,0.00,VWS V14.01,2013-06-09 14:19:00,
2013-06-09 09:24:00,53.9,51.6,29.98,ESE,103,0.0,0.0,92,0.01,,SKC,0.01,VWS V14.01,2013-06-09 14:24:00,
2013-06-09 09:29:00,53.8,51.8,29.98,East,99,0.0,0.0,93,0.01,,SKC,0.01,VWS V14.01,2013-06-09 14:29:00,
2013-06-09 09:34:00,53.8,52.1,29.98,East,100,0.0,0.0,94,0.01,,SKC,0.01,VWS V14.01,2013-06-09 14:34:00,
2013-06-09 09:39:00,53.8,52.1,29.98,East,99,0.0,0.0,94,0.02,,SKC,0.02,VWS V14.01,2013-06-09 14:39:00,
2013-06-09 09:44:00,53.9,52.5,29.97,East,101,0.0,0.0,95,0.02,,SKC,0.02,VWS V14.01,2013-06-09 14:44:00,
2013-06-09 09:49:00,54.0,52.6,29.97,East,100,0.0,0.0,95,0.02,,SKC,0.02,VWS V14.01,2013-06-09 14:49:00,
2013-06-09 09:55:00,54.1,52.7,29.97,ESE,103,1.0,3.0,95,0.02,,SKC,0.02,VWS V14.01,2013-06-09 14:55:00,
2013-06-09 10:00:00,54.3,52.9,29.97,ESE,114,1.0,2.0,95,0.02,,SKC,0.02,VWS V14.01,2013-06-09 15:00:00,
2013-06-09 10:05:00,54.5,53.1,29.97,ESE,106,1.0,2.0,95,0.02,,SKC,0.02,VWS V14.01,2013-06-09 15:05:00,
2013-06-09 10:10:00,54.7,53.3,29.97,ESE,109,1.0,2.0,95,0.02,,SKC,0.02,VWS V14.01,2013-06-09 15:10:00,
2013-06-09 10:15:00,54.9,53.2,29.96,ESE,115,1.0,2.0,94,0.02,,SKC,0.02,VWS V14.01,2013-06-09 15:15:00,
2013-06-09 10:20:00,55.1,53.4,29.96,ESE,121,1.0,2.0,94,0.02,,SKC,0.02,VWS V14.01,2013-06-09 15:20:00,
2013-06-09 10:25:00,55.4,54.0,29.96,East,101,2.0,2.0,95,0.01,,SKC,0.02,VWS V14.01,2013-06-09 15:25:00,
2013-06-09 10:30:00,55.4,53.7,29.96,East,98,1.0,3.0,94,0.02,,SKC,0.03,VWS V14.01,2013-06-09 15:30:00,
2013-06-09 10:35:00,55.5,53.8,29.96,East,101,1.0,3.0,94,0.02,,SKC,0.03,VWS V14.01,2013-06-09 15:35:00,
2013-06-09 10:40:00,55.7,54.0,29.96,ESE,105,0.0,2.0,94,0.02,,SKC,0.03,VWS V14.01,2013-06-09 15:40:00,
2013-06-09 10:45:00,55.9,53.9,29.96,ESE,115,0.0,3.0,93,0.01,,SKC,0.03,VWS V14.01,2013-06-09 15:45:00,
2013-06-09 10:50:00,56.2,54.2,29.96,ESE,119,0.0,3.0,93,0.01,,SKC,0.03,VWS V14.01,2013-06-09 15:50:00,
2013-06-09 10:55:00,56.8,55.1,29.96,East,87,2.0,4.0,94,0.01,,SKC,0.03,VWS V14.01,2013-06-09 15:55:00,
2013-06-09 11:00:00,57.0,54.7,29.96,East,85,1.0,3.0,92,0.01,,SKC,0.03,VWS V14.01,2013-06-09 16:00:00,
2013-06-09 11:05:00,57.5,55.2,29.96,East,98,1.0,3.0,92,0.01,,SKC,0.03,VWS V14.01,2013-06-09 16:05:00,
2013-06-09 11:10:00,57.9,55.3,29.96,ESE,117,1.0,3.0,91,0.01,,SKC,0.03,VWS V14.01,2013-06-09 16:10:00,
2013-06-09 11:15:00,58.2,55.0,29.96,ESE,119,0.0,2.0,89,0.01,,SKC,0.03,VWS V14.01,2013-06-09 16:15:00,
2013-06-09 11:20:00,58.5,55.3,29.96,East,86,2.0,5.0,89,0.01,,SKC,0.03,VWS V14.01,2013-06-09 16:20:00,
2013-06-09 11:25:00,58.5,54.0,29.96,East,92,1.0,2.0,85,0.01,,SKC,0.03,VWS V14.01,2013-06-09 16:25:00,
2013-06-09 11:30:00,58.7,54.8,29.95,ESE,119,1.0,1.0,87,0.00,,SKC,0.03,VWS V14.01,2013-06-09 16:30:00,
2013-06-09 11:35:00,58.8,53.7,29.95,ESE,111,0.0,3.0,83,0.00,,SKC,0.03,VWS V14.01,2013-06-09 16:35:00,
2013-06-09 11:40:00,59.0,54.2,29.95,East,92,2.0,3.0,84,0.00,,SKC,0.03,VWS V14.01,2013-06-09 16:40:00,
2013-06-09 11:45:00,59.1,54.0,29.95,ESE,103,0.0,3.0,83,0.00,,SKC,0.03,VWS V14.01,2013-06-09 16:45:00,
2013-06-09 11:50:00,59.1,54.0,29.95,East,90,2.0,3.0,83,0.00,,SKC,0.03,VWS V14.01,2013-06-09 16:50:00,
2013-06-09 11:55:00,59.2,53.7,29.95,ESE,115,0.0,2.0,82,0.00,,SKC,0.03,VWS V14.01,2013-06-09 16:55:00,
2013-06-09 12:00:00,59.3,53.8,29.95,East,89,2.0,3.0,82,0.00,,SKC,0.03,VWS V14.01,2013-06-09 17:00:00,
2013-06-09 12:05:00,59.3,53.8,29.95,ESE,116,2.0,2.0,82,0.00,,SKC,0.03,VWS V14.01,2013-06-09 17:05:00,
2013-06-09 12:10:00,59.6,54.1,29.95,East,84,0.0,4.0,82,0.00,,SKC,0.03,VWS V14.01,2013-06-09 17:10:00,
2013-06-09 12:15:00,60.0,54.2,29.94,ESE,121,1.0,1.0,81,0.00,,SKC,0.03,VWS V14.01,2013-06-09 17:15:00,
2013-06-09 12:20:00,60.3,53.8,29.94,ENE,77,1.0,2.0,79,0.00,,SKC,0.03,VWS V14.01,2013-06-09 17:20:00,
2013-06-09 12:25:00,60.5,52.9,29.94,East,98,1.0,3.0,76,0.00,,SKC,0.03,VWS V14.01,2013-06-09 17:25:00,
2013-06-09 12:30:00,60.4,53.2,29.93,East,94,2.0,3.0,77,0.00,,SKC,0.03,VWS V14.01,2013-06-09 17:30:00,
2013-06-09 12:35:00,60.5,52.5,29.93,East,88,1.0,1.0,75,0.00,,SKC,0.03,VWS V14.01,2013-06-09 17:35:00,
2013-06-09 12:40:00,60.7,53.1,29.93,East,94,1.0,2.0,76,0.00,,SKC,0.03,VWS V14.01,2013-06-09 17:40:00,
2013-06-09 12:45:00,60.8,52.1,29.93,ESE,113,4.0,6.0,73,0.00,,SKC,0.03,VWS V14.01,2013-06-09 17:45:00,
2013-06-09 12:50:00,61.0,51.9,29.93,SE,125,2.0,2.0,72,0.00,,SKC,0.03,VWS V14.01,2013-06-09 17:50:00,
2013-06-09 12:55:00,61.2,52.5,29.93,ESE,111,1.0,2.0,73,0.00,,SKC,0.03,VWS V14.01,2013-06-09 17:55:00,
2013-06-09 13:00:00,61.5,52.8,29.93,SE,130,1.0,2.0,73,0.00,,SKC,0.03,VWS V14.01,2013-06-09 18:00:00,
2013-06-09 13:05:00,61.8,53.1,29.93,ESE,111,2.0,2.0,73,0.00,,SKC,0.03,VWS V14.01,2013-06-09 18:05:00,
2013-06-09 13:10:00,62.0,53.6,29.93,ESE,122,2.0,3.0,74,0.00,,SKC,0.03,VWS V14.01,2013-06-09 18:10:00,
2013-06-09 13:15:00,62.1,53.7,29.93,East,97,2.0,4.0,74,0.00,,SKC,0.03,VWS V14.01,2013-06-09 18:15:00,
2013-06-09 13:20:00,62.2,54.2,29.93,ESE,105,2.0,2.0,75,0.00,,SKC,0.03,VWS V14.01,2013-06-09 18:20:00,
2013-06-09 13:25:00,62.3,54.3,29.93,ESE,117,2.0,2.0,75,0.00,,SKC,0.03,VWS V14.01,2013-06-09 18:25:00,
2013-06-09 13:30:00,62.2,54.5,29.93,East,96,3.0,3.0,76,0.00,,SKC,0.03,VWS V14.01,2013-06-09 18:30:00,
2013-06-09 13:35:00,62.2,54.9,29.93,East,98,2.0,2.0,77,0.00,,SKC,0.03,VWS V14.01,2013-06-09 18:35:00,
2013-06-09 13:40:00,62.0,55.4,29.93,East,101,1.0,2.0,79,0.00,,SKC,0.03,VWS V14.01,2013-06-09 18:40:00,
2013-06-09 13:45:00,62.0,55.8,29.92,East,81,1.0,3.0,80,0.00,,SKC,0.03,VWS V14.01,2013-06-09 18:45:00,
2013-06-09 13:50:00,62.0,56.1,29.92,East,87,1.0,3.0,81,0.00,,SKC,0.03,VWS V14.01,2013-06-09 18:50:00,
2013-06-09 13:55:00,62.0,55.1,29.92,ESE,105,1.0,2.0,78,0.00,,SKC,0.03,VWS V14.01,2013-06-09 18:55:00,
2013-06-09 14:00:00,62.2,55.6,29.92,East,87,1.0,2.0,79,0.00,,SKC,0.03,VWS V14.01,2013-06-09 19:00:00,
2013-06-09 14:05:00,62.1,55.2,29.92,East,84,1.0,3.0,78,0.00,,SKC,0.03,VWS V14.01,2013-06-09 19:05:00,
2013-06-09 14:10:00,62.3,55.4,29.92,SE,126,1.0,2.0,78,0.00,,SKC,0.03,VWS V14.01,2013-06-09 19:10:00,
2013-06-09 14:15:00,62.5,55.9,29.91,ESE,105,1.0,3.0,79,0.00,,SKC,0.03,VWS V14.01,2013-06-09 19:15:00,
2013-06-09 14:20:00,62.9,55.6,29.91,East,90,3.0,3.0,77,0.00,,SKC,0.03,VWS V14.01,2013-06-09 19:20:00,
2013-06-09 14:25:00,63.2,55.5,29.91,SE,134,2.0,3.0,76,0.00,,SKC,0.03,VWS V14.01,2013-06-09 19:25:00,
2013-06-09 14:30:00,63.2,55.2,29.91,ESE,123,2.0,3.0,75,0.00,,SKC,0.03,VWS V14.01,2013-06-09 19:30:00,
2013-06-09 14:35:00,63.5,55.8,29.91,ESE,111,2.0,3.0,76,0.00,,SKC,0.03,VWS V14.01,2013-06-09 19:35:00,
2013-06-09 14:40:00,63.9,55.5,29.91,East,85,2.0,4.0,74,0.00,,SKC,0.03,VWS V14.01,2013-06-09 19:40:00,
2013-06-09 14:45:00,64.2,55.8,29.90,East,88,1.0,2.0,74,0.00,,SKC,0.03,VWS V14.01,2013-06-09 19:45:00,
2013-06-09 14:50:00,64.5,56.4,29.90,ESE,111,3.0,3.0,75,0.00,,SKC,0.03,VWS V14.01,2013-06-09 19:50:00,
2013-06-09 14:55:00,64.7,56.6,29.90,ESE,108,3.0,3.0,75,0.00,,SKC,0.03,VWS V14.01,2013-06-09 19:55:00,
2013-06-09 15:00:00,64.6,56.1,29.90,SE,128,2.0,3.0,74,0.00,,SKC,0.03,VWS V14.01,2013-06-09 20:00:00,
2013-06-09 15:05:00,64.8,56.3,29.90,ESE,103,2.0,3.0,74,0.00,,SKC,0.03,VWS V14.01,2013-06-09 20:05:00,
2013-06-09 15:10:00,65.0,56.2,29.90,ESE,110,2.0,2.0,73,0.00,,SKC,0.03,VWS V14.01,2013-06-09 20:10:00,
2013-06-09 15:15:00,65.2,57.1,29.89,NE,38,1.0,3.0,75,0.00,,SKC,0.03,VWS V14.01,2013-06-09 20:15:00,
2013-06-09 15:20:00,65.4,57.3,29.89,East,92,3.0,3.0,75,0.00,,SKC,0.03,VWS V14.01,2013-06-09 20:20:00,
2013-06-09 15:25:00,65.8,57.7,29.89,ESE,105,4.0,7.0,75,0.00,,SKC,0.03,VWS V14.01,2013-06-09 20:25:00,
2013-06-09 15:30:00,66.0,57.1,29.89,East,101,1.0,2.0,73,0.00,,SKC,0.03,VWS V14.01,2013-06-09 20:30:00,
2013-06-09 15:35:00,66.3,58.2,29.89,NE,42,3.0,4.0,75,0.00,,SKC,0.03,VWS V14.01,2013-06-09 20:35:00,
2013-06-09 15:40:00,66.1,56.4,29.89,SE,127,3.0,4.0,71,0.00,,SKC,0.03,VWS V14.01,2013-06-09 20:40:00,
2013-06-09 15:45:00,66.0,56.7,29.89,SE,132,3.0,3.0,72,0.00,,SKC,0.03,VWS V14.01,2013-06-09 20:45:00,
2013-06-09 15:50:00,66.3,57.4,29.89,SE,130,4.0,5.0,73,0.00,,SKC,0.03,VWS V14.01,2013-06-09 20:50:00,
2013-06-09 15:55:00,66.3,56.6,29.89,East,86,5.0,6.0,71,0.00,,SKC,0.03,VWS V14.01,2013-06-09 20:55:00,
2013-06-09 16:00:00,66.4,56.3,29.88,SE,134,4.0,7.0,70,0.00,,SKC,0.03,VWS V14.01,2013-06-09 21:00:00,
2013-06-09 16:06:00,66.8,56.7,29.88,East,83,2.0,6.0,70,0.00,,SKC,0.03,VWS V14.01,2013-06-09 21:06:00,
2013-06-09 16:11:00,67.3,56.8,29.88,East,89,2.0,5.0,69,0.00,,SKC,0.03,VWS V14.01,2013-06-09 21:11:00,
2013-06-09 16:16:00,67.9,57.0,29.88,SE,130,1.0,5.0,68,0.00,,SKC,0.03,VWS V14.01,2013-06-09 21:16:00,
2013-06-09 16:21:00,68.1,56.3,29.88,SSE,150,4.0,5.0,66,0.00,,SKC,0.03,VWS V14.01,2013-06-09 21:21:00,
2013-06-09 16:26:00,68.2,56.8,29.88,SE,131,4.0,4.0,67,0.00,,SKC,0.03,VWS V14.01,2013-06-09 21:26:00,
2013-06-09 16:31:00,68.3,57.3,29.88,East,100,2.0,7.0,68,0.00,,SKC,0.03,VWS V14.01,2013-06-09 21:31:00,
2013-06-09 16:36:00,68.1,56.7,29.88,ESE,103,4.0,5.0,67,0.00,,SKC,0.03,VWS V14.01,2013-06-09 21:36:00,
2013-06-09 16:41:00,67.6,57.1,29.88,East,95,2.0,3.0,69,0.00,,SKC,0.03,VWS V14.01,2013-06-09 21:41:00,
2013-06-09 16:46:00,67.5,57.8,29.87,East,101,0.0,1.0,71,0.00,,SKC,0.03,VWS V14.01,2013-06-09 21:46:00,
2013-06-09 16:51:00,67.3,57.2,29.87,SSE,159,3.0,3.0,70,0.00,,SKC,0.03,VWS V14.01,2013-06-09 21:51:00,
2013-06-09 16:56:00,67.3,57.2,29.87,East,98,2.0,3.0,70,0.00,,SKC,0.03,VWS V14.01,2013-06-09 21:56:00,
2013-06-09 17:01:00,67.3,57.6,29.87,East,94,1.0,2.0,71,0.00,,SKC,0.03,VWS V14.01,2013-06-09 22:01:00,
2013-06-09 17:06:00,67.3,57.2,29.87,ESE,113,2.0,2.0,70,0.00,,SKC,0.03,VWS V14.01,2013-06-09 22:06:00,
2013-06-09 17:11:00,67.2,57.1,29.87,East,80,3.0,3.0,70,0.00,,SKC,0.03,VWS V14.01,2013-06-09 22:11:00,
2013-06-09 17:16:00,67.2,57.9,29.86,SE,134,3.0,3.0,72,0.00,,SKC,0.03,VWS V14.01,2013-06-09 22:16:00,
2013-06-09 17:21:00,67.3,57.6,29.86,South,169,2.0,4.0,71,0.00,,SKC,0.03,VWS V14.01,2013-06-09 22:21:00,
2013-06-09 17:26:00,67.4,57.7,29.86,East,89,2.0,6.0,71,0.00,,SKC,0.03,VWS V14.01,2013-06-09 22:26:00,
2013-06-09 17:31:00,67.4,57.7,29.86,East,88,1.0,3.0,71,0.00,,SKC,0.03,VWS V14.01,2013-06-09 22:31:00,
2013-06-09 17:36:00,67.6,58.3,29.86,East,91,2.0,2.0,72,0.00,,SKC,0.03,VWS V14.01,2013-06-09 22:36:00,
2013-06-09 17:41:00,67.5,57.8,29.86,SE,131,1.0,2.0,71,0.00,,SKC,0.03,VWS V14.01,2013-06-09 22:41:00,
2013-06-09 17:46:00,67.3,57.6,29.86,ESE,115,4.0,5.0,71,0.00,,SKC,0.03,VWS V14.01,2013-06-09 22:46:00,
2013-06-09 17:52:00,67.1,57.4,29.86,ESE,107,1.0,3.0,71,0.00,,SKC,0.03,VWS V14.01,2013-06-09 22:52:00,
2013-06-09 17:57:00,67.1,58.2,29.86,East,84,1.0,3.0,73,0.00,,SKC,0.03,VWS V14.01,2013-06-09 22:57:00,
2013-06-09 18:02:00,66.9,57.6,29.85,ESE,114,2.0,4.0,72,0.00,,SKC,0.03,VWS V14.01,2013-06-09 23:02:00,
2013-06-09 18:07:00,66.9,57.6,29.85,SE,134,1.0,2.0,72,0.00,,SKC,0.03,VWS V14.01,2013-06-09 23:07:00,
2013-06-09 18:12:00,66.7,57.4,29.85,ENE,59,3.0,5.0,72,0.00,,SKC,0.03,VWS V14.01,2013-06-09 23:12:00,
2013-06-09 18:17:00,66.6,57.7,29.85,East,93,0.0,2.0,73,0.00,,SKC,0.03,VWS V14.01,2013-06-09 23:17:00,
2013-06-09 18:22:00,66.6,57.7,29.85,SSW,200,2.0,4.0,73,0.00,,SKC,0.03,VWS V14.01,2013-06-09 23:22:00,
2013-06-09 18:27:00,66.6,58.1,29.85,East,101,1.0,3.0,74,0.00,,SKC,0.03,VWS V14.01,2013-06-09 23:27:00,
2013-06-09 18:32:00,66.4,57.9,29.85,ENE,74,2.0,4.0,74,0.00,,SKC,0.03,VWS V14.01,2013-06-09 23:32:00,
2013-06-09 18:37:00,66.4,57.9,29.85,SE,128,2.0,3.0,74,0.00,,SKC,0.03,VWS V14.01,2013-06-09 23:37:00,
2013-06-09 18:42:00,66.4,58.2,29.85,East,92,0.0,3.0,75,0.00,,SKC,0.03,VWS V14.01,2013-06-09 23:42:00,
2013-06-09 18:47:00,66.3,58.2,29.86,East,94,1.0,2.0,75,0.00,,SKC,0.03,VWS V14.01,2013-06-09 23:47:00,
2013-06-09 18:52:00,66.2,58.0,29.86,East,87,0.0,3.0,75,0.00,,SKC,0.03,VWS V14.01,2013-06-09 23:52:00,
2013-06-09 18:57:00,65.9,58.1,29.86,ESE,107,1.0,3.0,76,0.00,,SKC,0.03,VWS V14.01,2013-06-09 23:57:00,
2013-06-09 19:02:00,65.7,57.6,29.86,ESE,119,1.0,2.0,75,0.00,,SKC,0.03,VWS V14.01,2013-06-10 00:02:00,
2013-06-09 19:07:00,65.5,57.7,29.86,ESE,123,2.0,2.0,76,0.00,,SKC,0.03,VWS V14.01,2013-06-10 00:07:00,
2013-06-09 19:12:00,65.3,57.5,29.86,ESE,117,1.0,2.0,76,0.00,,SKC,0.03,VWS V14.01,2013-06-10 00:12:00,
2013-06-09 19:17:00,65.0,57.6,29.86,ESE,102,1.0,5.0,77,0.00,,SKC,0.03,VWS V14.01,2013-06-10 00:17:00,
2013-06-09 19:22:00,64.9,57.5,29.86,ESE,123,2.0,3.0,77,0.00,,SKC,0.03,VWS V14.01,2013-06-10 00:22:00,
2013-06-09 19:27:00,64.8,57.4,29.86,East,98,1.0,3.0,77,0.00,,SKC,0.03,VWS V14.01,2013-06-10 00:27:00,
2013-06-09 19:32:00,64.7,57.7,29.86,ENE,78,0.0,2.0,78,0.00,,SKC,0.03,VWS V14.01,2013-06-10 00:32:00,
2013-06-09 19:37:00,64.5,57.5,29.86,East,95,2.0,2.0,78,0.00,,SKC,0.03,VWS V14.01,2013-06-10 00:37:00,
2013-06-09 19:42:00,64.5,57.5,29.86,ESE,118,2.0,3.0,78,0.00,,SKC,0.03,VWS V14.01,2013-06-10 00:42:00,
2013-06-09 19:47:00,64.5,57.5,29.86,ESE,103,1.0,4.0,78,0.00,,SKC,0.03,VWS V14.01,2013-06-10 00:47:00,
2013-06-09 19:52:00,64.4,57.4,29.86,East,96,1.0,3.0,78,0.00,,SKC,0.03,VWS V14.01,2013-06-10 00:52:00,
2013-06-09 19:57:00,64.1,57.5,29.86,East,85,0.0,2.0,79,0.00,,SKC,0.03,VWS V14.01,2013-06-10 00:57:00,
2013-06-09 20:02:00,64.0,57.7,29.86,East,88,1.0,2.0,80,0.00,,SKC,0.03,VWS V14.01,2013-06-10 01:02:00,
2013-06-09 20:07:00,63.8,57.5,29.86,ESE,105,0.0,2.0,80,0.00,,SKC,0.03,VWS V14.01,2013-06-10 01:07:00,
2013-06-09 20:12:00,63.8,57.2,29.86,ESE,118,1.0,2.0,79,0.00,,SKC,0.03,VWS V14.01,2013-06-10 01:12:00,
2013-06-09 20:17:00,63.8,57.5,29.86,ENE,74,0.0,2.0,80,0.00,,SKC,0.03,VWS V14.01,2013-06-10 01:17:00,
2013-06-09 20:22:00,63.6,57.7,29.86,East,89,0.0,2.0,81,0.00,,SKC,0.03,VWS V14.01,2013-06-10 01:22:00,
2013-06-09 20:27:00,63.4,57.5,29.86,ESE,105,0.0,2.0,81,0.00,,SKC,0.03,VWS V14.01,2013-06-10 01:27:00,
2013-06-09 20:32:00,63.4,57.5,29.86,ESE,111,0.0,2.0,81,0.00,,SKC,0.03,VWS V14.01,2013-06-10 01:32:00,
2013-06-09 20:37:00,63.3,57.4,29.86,ESE,107,0.0,0.0,81,0.00,,SKC,0.03,VWS V14.01,2013-06-10 01:37:00,
2013-06-09 20:42:00,63.2,57.6,29.86,SE,130,0.0,0.0,82,0.00,,SKC,0.03,VWS V14.01,2013-06-10 01:42:00,
2013-06-09 20:47:00,63.0,57.4,29.86,East,99,0.0,0.0,82,0.00,,SKC,0.03,VWS V14.01,2013-06-10 01:47:00,
2013-06-09 20:52:00,63.0,57.4,29.86,East,94,0.0,3.0,82,0.00,,SKC,0.03,VWS V14.01,2013-06-10 01:52:00,
2013-06-09 20:57:00,62.9,57.0,29.86,East,94,0.0,2.0,81,0.00,,SKC,0.03,VWS V14.01,2013-06-10 01:57:00,
2013-06-09 21:02:00,62.9,57.3,29.86,East,94,0.0,1.0,82,0.00,,SKC,0.03,VWS V14.01,2013-06-10 02:02:00,
2013-06-09 21:07:00,62.7,57.1,29.86,ESE,107,0.0,0.0,82,0.00,,SKC,0.03,VWS V14.01,2013-06-10 02:07:00,
2013-06-09 21:12:00,62.6,57.0,29.86,ESE,108,0.0,0.0,82,0.00,,SKC,0.03,VWS V14.01,2013-06-10 02:12:00,
2013-06-09 21:17:00,62.4,56.8,29.86,ESE,107,0.0,0.0,82,0.00,,SKC,0.03,VWS V14.01,2013-06-10 02:17:00,
2013-06-09 21:22:00,62.3,57.1,29.86,ESE,108,0.0,0.0,83,0.00,,SKC,0.03,VWS V14.01,2013-06-10 02:22:00,
2013-06-09 21:27:00,62.1,56.9,29.86,ESE,107,0.0,0.0,83,0.00,,SKC,0.03,VWS V14.01,2013-06-10 02:27:00,
2013-06-09 21:33:00,62.0,56.8,29.86,ESE,107,0.0,0.0,83,0.00,,SKC,0.03,VWS V14.01,2013-06-10 02:33:00,
2013-06-09 21:38:00,61.9,56.7,29.86,East,88,0.0,0.0,83,0.00,,SKC,0.03,VWS V14.01,2013-06-10 02:38:00,
2013-06-09 21:43:00,61.7,56.8,29.86,East,88,0.0,0.0,84,0.00,,SKC,0.03,VWS V14.01,2013-06-10 02:43:00,
2013-06-09 21:48:00,61.6,56.7,29.86,East,90,0.0,0.0,84,0.00,,SKC,0.03,VWS V14.01,2013-06-10 02:48:00,
2013-06-09 21:53:00,61.5,56.3,29.86,East,90,0.0,0.0,83,0.00,,SKC,0.03,VWS V14.01,2013-06-10 02:53:00,
2013-06-09 21:58:00,61.5,56.3,29.86,East,90,0.0,0.0,83,0.00,,SKC,0.03,VWS V14.01,2013-06-10 02:58:00,
2013-06-09 22:03:00,61.4,56.5,29.86,East,90,0.0,0.0,84,0.00,,SKC,0.03,VWS V14.01,2013-06-10 03:03:00,
2013-06-09 22:08:00,61.2,56.3,29.86,ESE,103,0.0,0.0,84,0.00,,SKC,0.03,VWS V14.01,2013-06-10 03:08:00,
2013-06-09 22:13:00,60.9,56.4,29.86,ESE,103,0.0,0.0,85,0.00,,SKC,0.03,VWS V14.01,2013-06-10 03:13:00,
2013-06-09 22:18:00,60.7,56.2,29.86,ESE,103,0.0,0.0,85,0.00,,SKC,0.03,VWS V14.01,2013-06-10 03:18:00,
2013-06-09 22:23:00,60.4,56.2,29.86,ESE,102,0.0,0.0,86,0.00,,SKC,0.03,VWS V14.01,2013-06-10 03:23:00,
2013-06-09 22:28:00,60.2,56.0,29.86,ESE,103,0.0,0.0,86,0.00,,SKC,0.03,VWS V14.01,2013-06-10 03:28:00,
2013-06-09 22:33:00,60.1,55.9,29.86,SE,140,0.0,0.0,86,0.00,,SKC,0.03,VWS V14.01,2013-06-10 03:33:00,
2013-06-09 22:38:00,60.1,55.9,29.86,ESE,110,0.0,0.0,86,0.00,,SKC,0.03,VWS V14.01,2013-06-10 03:38:00,
2013-06-09 22:43:00,60.0,55.8,29.86,ESE,105,0.0,0.0,86,0.00,,SKC,0.03,VWS V14.01,2013-06-10 03:43:00,
2013-06-09 22:48:00,59.8,55.6,29.86,ESE,105,0.0,0.0,86,0.00,,SKC,0.03,VWS V14.01,2013-06-10 03:48:00,
2013-06-09 22:53:00,59.6,55.7,29.86,ESE,105,0.0,0.0,87,0.00,,SKC,0.03,VWS V14.01,2013-06-10 03:53:00,
2013-06-09 22:58:00,59.5,55.6,29.86,ESE,105,0.0,0.0,87,0.00,,SKC,0.03,VWS V14.01,2013-06-10 03:58:00,
2013-06-09 23:01:00,59.3,55.4,29.85,ESE,105,0.0,0.0,87,0.00,,SKC,0.03,VWS V14.01,2013-06-10 04:01:00,
2013-06-09 23:02:00,59.3,55.4,29.85,ESE,105,0.0,0.0,87,0.00,,SKC,0.03,VWS V14.01,2013-06-10 04:02:00,
2013-06-09 23:07:00,59.0,55.5,29.85,ESE,105,0.0,0.0,88,0.00,,SKC,0.03,VWS V14.01,2013-06-10 04:07:00,
2013-06-09 23:12:00,58.8,55.3,29.85,ESE,105,0.0,0.0,88,0.00,,SKC,0.03,VWS V14.01,2013-06-10 04:12:00,
2013-06-09 23:17:00,58.6,55.4,29.85,ESE,105,0.0,0.0,89,0.00,,SKC,0.03,VWS V14.01,2013-06-10 04:17:00,
2013-06-09 23:22:00,58.4,55.2,29.85,ESE,105,0.0,0.0,89,0.00,,SKC,0.03,VWS V14.01,2013-06-10 04:22:00,
2013-06-09 23:27:00,58.2,55.0,29.85,ESE,105,0.0,0.0,89,0.00,,SKC,0.03,VWS V14.01,2013-06-10 04:27:00,
2013-06-09 23:32:00,58.2,55.3,29.85,ESE,105,0.0,0.0,90,0.00,,SKC,0.03,VWS V14.01,2013-06-10 04:32:00,
2013-06-09 23:37:00,58.1,55.2,29.85,ESE,105,0.0,0.0,90,0.00,,SKC,0.03,VWS V14.01,2013-06-10 04:37:00,
2013-06-09 23:42:00,58.2,55.3,29.85,ESE,105,0.0,0.0,90,0.00,,SKC,0.03,VWS V14.01,2013-06-10 04:42:00,
2013-06-09 23:47:00,58.3,55.4,29.85,ESE,105,0.0,0.0,90,0.00,,SKC,0.03,VWS V14.01,2013-06-10 04:47:00,
2013-06-09 23:52:00,58.5,55.3,29.85,ESE,105,0.0,0.0,89,0.00,,SKC,0.03,VWS V14.01,2013-06-10 04:52:00,
2013-06-09 23:57:00,58.6,55.4,29.85,ESE,105,0.0,0.0,89,0.00,,SKC,0.03,VWS V14.01,2013-06-10 04:57:00,